Time;durP1;ratioP1;P1;durP2;ratioP2;P2;SDS_P1;SDS_P2;PMS_P1;PMS_P2;Temp;Humidity;BMP_temperature;BMP_pressure;BME280_temperature;BME280_humidity;BME280_pressure;Samples;Min_cycle;Max_cycle;Signal;HPM_P1;HPM_P2
2021/09/22 00:02:27;;;;;;;7.90;4.90;;;;;;;12.25;57.31;100894.64;117343;1187;21864;-57
2021/09/22 00:04:56;;;;;;;10.70;4.20;;;;;;;12.28;57.43;100893.19;117355;1184;21861;-60
2021/09/22 00:07:44;;;;;;;6.40;4.10;;;;;;;12.27;57.37;100886.16;117338;1188;21869;-61
2021/09/22 00:10:14;;;;;;;6.00;4.30;;;;;;;12.26;57.41;100887.23;117437;1185;21851;-61
2021/09/22 00:12:42;;;;;;;6.80;5.10;;;;;;;12.25;57.23;100885.66;117371;1185;23542;-61
2021/09/22 00:15:30;;;;;;;7.20;5.00;;;;;;;12.22;57.36;100882.70;117337;1185;21892;-61
2021/09/22 00:17:58;;;;;;;7.70;5.00;;;;;;;12.23;57.31;100885.34;117342;1185;21859;-61
2021/09/22 00:20:46;;;;;;;8.10;4.40;;;;;;;12.20;57.26;100883.41;117311;1185;22163;-61
2021/09/22 00:23:16;;;;;;;8.00;4.60;;;;;;;12.18;57.26;100882.91;117275;1185;23587;-61
2021/09/22 00:26:04;;;;;;;10.80;5.10;;;;;;;12.21;57.21;100885.70;117302;1185;21888;-61
2021/09/22 00:28:32;;;;;;;6.60;4.70;;;;;;;12.23;57.15;100884.80;117378;1185;22760;-58
2021/09/22 00:31:01;;;;;;;7.40;4.40;;;;;;;12.22;57.34;100880.77;117355;1185;23560;-61
2021/09/22 00:33:30;;;;;;;7.40;4.60;;;;;;;12.22;57.22;100877.60;117374;1183;23554;-57
2021/09/22 00:35:58;;;;;;;6.80;4.20;;;;;;;12.22;57.42;100874.77;117429;1185;21858;-57
2021/09/22 00:38:27;;;;;;;6.30;3.70;;;;;;;12.25;57.20;100872.81;117332;1183;23544;-57
2021/09/22 00:40:54;;;;;;;10.10;4.50;;;;;;;12.28;57.13;100871.72;117251;1189;21859;-57
2021/09/22 00:43:23;;;;;;;6.90;3.70;;;;;;;12.28;57.25;100867.15;117353;1184;23545;-57
2021/09/22 00:45:51;;;;;;;5.80;3.90;;;;;;;12.34;57.34;100869.02;117322;1185;21898;-57
2021/09/22 00:48:19;;;;;;;6.50;3.50;;;;;;;12.36;57.32;100868.11;117300;1184;23066;-57
2021/09/22 00:50:49;;;;;;;5.90;4.00;;;;;;;12.37;57.45;100860.88;117337;1185;22922;-57
2021/09/22 00:53:17;;;;;;;5.60;3.60;;;;;;;12.43;57.56;100858.53;117342;1182;23570;-57
2021/09/22 00:55:46;;;;;;;4.80;3.10;;;;;;;12.47;57.46;100855.31;117157;1186;23543;-57
2021/09/22 00:58:38;;;;;;;4.80;3.60;;;;;;;12.48;57.51;100854.77;117281;1183;22623;-55
2021/09/22 01:01:06;;;;;;;7.20;3.30;;;;;;;12.46;57.44;100857.77;117282;1185;21856;-55
2021/09/22 01:03:35;;;;;;;4.50;3.00;;;;;;;12.45;57.42;100856.38;117330;1183;23554;-55
2021/09/22 01:06:05;;;;;;;4.70;3.00;;;;;;;12.45;57.53;100859.89;117305;1180;22318;-55
2021/09/22 01:08:33;;;;;;;5.30;3.30;;;;;;;12.48;57.40;100859.52;117340;1180;21898;-55
2021/09/22 01:11:01;;;;;;;4.10;2.80;;;;;;;12.50;57.38;100859.50;117338;1188;21889;-55
2021/09/22 01:13:31;;;;;;;5.70;3.10;;;;;;;12.53;57.40;100856.82;117425;1183;23560;-55
2021/09/22 01:15:59;;;;;;;5.00;2.60;;;;;;;12.55;57.16;100857.33;117299;1185;22621;-55
2021/09/22 01:18:30;;;;;;;3.80;2.90;;;;;;;12.56;57.20;100854.33;117360;1184;23557;-55
2021/09/22 01:20:58;;;;;;;5.20;2.90;;;;;;;12.56;57.19;100853.96;117332;1184;21848;-55
2021/09/22 01:23:27;;;;;;;3.80;2.50;;;;;;;12.57;57.32;100846.56;117362;1183;23545;-56
2021/09/22 01:25:56;;;;;;;4.00;2.40;;;;;;;12.59;57.31;100849.89;117423;1183;22919;-55
2021/09/22 01:28:26;;;;;;;6.00;2.80;;;;;;;12.57;57.33;100849.20;117358;1182;23544;-55
2021/09/22 01:31:00;;;;;;;5.30;2.50;;;;;;;12.55;57.37;100855.21;117331;1185;22053;-55
2021/09/22 01:33:30;;;;;;;3.40;2.30;;;;;;;12.52;57.38;100854.73;117428;1180;21858;-55
2021/09/22 01:35:58;;;;;;;5.40;2.40;;;;;;;12.48;57.32;100858.28;117344;1185;23468;-56
2021/09/22 01:38:28;;;;;;;3.80;2.30;;;;;;;12.44;57.25;100851.98;117331;1188;21858;-59
2021/09/22 01:40:57;;;;;;;3.50;2.20;;;;;;;12.43;57.24;100852.88;117368;1184;23439;-55
2021/09/22 01:43:26;;;;;;;4.00;2.50;;;;;;;12.41;57.29;100848.68;117330;1185;21856;-59
2021/09/22 01:45:56;;;;;;;2.70;1.80;;;;;;;12.38;57.18;100845.39;117378;1185;21859;-55
2021/09/22 01:48:26;;;;;;;2.70;1.60;;;;;;;12.33;57.23;100843.70;117354;1185;23567;-59
2021/09/22 01:50:55;;;;;;;3.40;2.10;;;;;;;12.24;57.24;100843.44;117439;1184;22902;-59
2021/09/22 01:53:43;;;;;;;3.20;2.00;;;;;;;12.20;57.23;100850.16;117291;1185;21854;-55
2021/09/22 01:56:12;;;;;;;4.10;2.40;;;;;;;12.15;57.19;100854.27;117332;1184;21880;-55
2021/09/22 01:58:40;;;;;;;4.50;2.50;;;;;;;12.09;57.22;100859.80;117327;1188;21860;-55
2021/09/22 02:01:12;;;;;;;3.50;2.50;;;;;;;12.06;57.18;100861.06;117295;1186;23522;-55
2021/09/22 02:03:42;;;;;;;4.40;2.90;;;;;;;12.07;57.20;100855.42;117458;1183;22634;-55
2021/09/22 02:06:12;;;;;;;5.30;3.20;;;;;;;12.03;57.00;100853.70;117332;1186;23541;-56
2021/09/22 02:08:43;;;;;;;6.80;3.00;;;;;;;11.98;56.95;100851.80;117378;1185;23554;-55
2021/09/22 02:11:11;;;;;;;5.70;3.40;;;;;;;11.93;57.05;100855.70;117299;1176;23440;-54
2021/09/22 02:13:41;;;;;;;5.00;3.00;;;;;;;11.87;57.00;100856.65;117324;1185;23537;-55
2021/09/22 02:16:09;;;;;;;4.70;2.50;;;;;;;11.85;57.03;100853.50;117405;1186;21856;-55
2021/09/22 02:18:38;;;;;;;4.10;2.60;;;;;;;11.85;56.88;100846.83;117350;1183;23547;-55
2021/09/22 02:21:09;;;;;;;4.40;2.70;;;;;;;11.86;57.09;100837.48;117290;1183;23461;-55
2021/09/22 02:23:39;;;;;;;4.80;2.50;;;;;;;11.88;57.03;100834.48;117327;1182;22998;-55
2021/09/22 02:26:27;;;;;;;5.00;2.50;;;;;;;11.89;56.96;100838.87;117326;1185;23438;-55
2021/09/22 02:28:56;;;;;;;4.10;2.70;;;;;;;11.90;56.94;100845.38;117360;1182;21858;-55
2021/09/22 02:31:24;;;;;;;3.90;2.30;;;;;;;11.88;57.11;100843.10;117316;1185;22842;-55
2021/09/22 02:33:52;;;;;;;4.50;2.70;;;;;;;11.87;57.05;100853.84;117441;1184;22951;-56
2021/09/22 02:36:20;;;;;;;7.10;2.80;;;;;;;11.84;57.15;100853.69;117345;1188;21857;-56
2021/09/22 02:38:50;;;;;;;4.00;2.60;;;;;;;11.81;56.97;100855.82;117379;1183;23545;-56
2021/09/22 02:41:18;;;;;;;3.10;2.20;;;;;;;11.75;56.94;100858.16;117399;1183;23447;-56
2021/09/22 02:43:47;;;;;;;4.10;2.20;;;;;;;11.68;56.96;100852.98;117417;1184;23567;-56
2021/09/22 02:46:15;;;;;;;3.90;2.50;;;;;;;11.62;57.01;100847.22;117440;1186;21855;-56
2021/09/22 02:48:43;;;;;;;3.50;2.10;;;;;;;11.56;56.93;100844.46;117403;1182;23544;-56
2021/09/22 02:51:11;;;;;;;3.60;1.90;;;;;;;11.50;57.02;100842.92;117396;1184;23544;-56
2021/09/22 02:53:41;;;;;;;4.10;2.00;;;;;;;11.44;56.82;100842.10;117373;1186;23557;-60
2021/09/22 02:56:09;;;;;;;4.40;2.60;;;;;;;11.39;56.88;100840.02;117396;1187;21845;-56
2021/09/22 02:58:37;;;;;;;3.30;1.90;;;;;;;11.37;57.01;100836.89;117366;1185;24152;-60
2021/09/22 03:01:06;;;;;;;4.60;2.80;;;;;;;11.32;57.16;100839.55;117310;1185;23436;-56
2021/09/22 03:03:36;;;;;;;4.30;2.70;;;;;;;11.29;57.04;100832.38;117267;1182;22899;-60
2021/09/22 03:06:07;;;;;;;4.50;2.90;;;;;;;11.29;57.22;100833.25;117351;1184;22919;-56
2021/09/22 03:08:38;;;;;;;5.50;3.00;;;;;;;11.29;57.21;100836.59;117188;1186;21853;-60
2021/09/22 03:11:08;;;;;;;5.50;3.00;;;;;;;11.29;57.29;100838.17;117411;1185;21852;-56
2021/09/22 03:13:56;;;;;;;5.20;3.20;;;;;;;11.28;57.35;100836.77;117320;1185;21845;-56
2021/09/22 03:16:25;;;;;;;5.50;2.70;;;;;;;11.28;57.26;100844.15;117345;1185;23535;-56
2021/09/22 03:18:54;;;;;;;5.10;3.00;;;;;;;11.27;57.27;100845.91;117332;1185;21858;-60
2021/09/22 03:21:22;;;;;;;4.80;3.00;;;;;;;11.26;57.26;100844.00;117326;1187;21866;-60
2021/09/22 03:24:10;;;;;;;9.40;3.20;;;;;;;11.27;57.27;100842.76;117308;1186;23380;-60
2021/09/22 03:26:42;;;;;;;7.80;2.60;;;;;;;11.28;57.41;100833.27;117355;1184;22917;-60
2021/09/22 03:29:10;;;;;;;4.20;2.70;;;;;;;11.30;57.30;100832.70;117397;1184;21986;-59
2021/09/22 03:31:44;;;;;;;5.30;2.70;;;;;;;11.36;57.48;100830.21;117284;1181;23561;-60
2021/09/22 03:34:13;;;;;;;8.60;2.90;;;;;;;11.42;57.57;100831.75;117103;1186;23560;-59
2021/09/22 03:36:42;;;;;;;5.60;2.80;;;;;;;11.46;57.57;100832.59;117335;1185;23557;-60
2021/09/22 03:39:11;;;;;;;8.30;2.70;;;;;;;11.49;57.41;100834.14;117313;1184;24126;-60
2021/09/22 03:41:39;;;;;;;7.30;2.50;;;;;;;11.52;57.41;100839.21;117364;1182;21858;-60
2021/09/22 03:44:07;;;;;;;6.40;2.40;;;;;;;11.55;57.29;100837.61;117279;1186;21845;-60
2021/09/22 03:46:36;;;;;;;4.70;2.70;;;;;;;11.54;57.13;100835.86;117365;1185;21854;-60
2021/09/22 03:49:20;;;;;;;4.50;2.70;;;;;;;11.49;57.29;100830.98;117349;1182;23567;-60
2021/09/22 03:51:48;;;;;;;4.30;2.50;;;;;;;11.49;57.42;100829.58;117330;1185;23544;-60
2021/09/22 03:54:20;;;;;;;4.00;2.50;;;;;;;11.51;57.44;100830.44;117353;1185;23544;-60
2021/09/22 03:57:07;;;;;;;5.90;2.80;;;;;;;11.53;57.41;100825.15;117384;1182;24815;-59
2021/09/22 03:59:39;;;;;;;5.70;3.00;;;;;;;11.55;57.49;100826.19;117276;1185;23569;-59
2021/09/22 04:02:08;;;;;;;4.80;2.80;;;;;;;11.57;57.54;100824.05;117281;1185;22176;-60
2021/09/22 04:04:38;;;;;;;4.80;2.50;;;;;;;11.60;57.36;100829.13;118665;1185;21858;-60
2021/09/22 04:07:07;;;;;;;3.70;2.30;;;;;;;11.60;57.46;100828.95;118949;1185;23541;-59
2021/09/22 04:09:35;;;;;;;4.70;2.50;;;;;;;11.61;57.46;100827.02;117361;1185;22915;-60
2021/09/22 04:12:04;;;;;;;3.90;2.00;;;;;;;11.62;57.56;100825.60;117278;1184;23542;-60
2021/09/22 04:14:33;;;;;;;4.40;2.80;;;;;;;11.61;57.69;100825.77;117349;1185;22906;-60
2021/09/22 04:17:16;;;;;;;6.60;3.10;;;;;;;11.63;57.57;100821.55;117303;1185;23660;-60
2021/09/22 04:19:45;;;;;;;4.30;2.30;;;;;;;11.62;57.74;100821.20;117358;1182;23383;-60
2021/09/22 04:22:15;;;;;;;4.80;2.40;;;;;;;11.62;57.55;100821.20;117294;1185;23592;-60
2021/09/22 04:24:43;;;;;;;4.70;2.70;;;;;;;11.65;57.48;100819.77;117385;1184;23551;-60
2021/09/22 04:27:13;;;;;;;6.00;3.30;;;;;;;11.64;57.51;100816.08;117306;1185;23573;-56
2021/09/22 04:29:42;;;;;;;7.10;3.90;;;;;;;11.60;57.63;100813.66;117417;1185;23547;-56
2021/09/22 04:32:19;;;;;;;5.90;3.60;;;;;;;11.58;57.73;100813.33;117304;1185;23567;-60
2021/09/22 04:34:48;;;;;;;9.50;3.70;;;;;;;11.60;57.76;100816.48;117355;1185;23567;-61
2021/09/22 04:37:36;;;;;;;5.90;3.70;;;;;;;11.61;57.64;100811.89;117301;1185;23558;-61
2021/09/22 04:40:06;;;;;;;5.90;4.10;;;;;;;11.65;57.65;100814.33;117280;1182;24145;-60
2021/09/22 04:42:34;;;;;;;6.00;4.00;;;;;;;11.69;57.70;100809.89;117386;1185;21896;-60
2021/09/22 04:45:04;;;;;;;6.50;4.00;;;;;;;11.76;57.58;100806.99;117313;1185;23544;-59
2021/09/22 04:47:32;;;;;;;6.50;4.30;;;;;;;11.84;57.79;100802.70;117332;1184;21881;-59
2021/09/22 04:50:01;;;;;;;7.50;4.80;;;;;;;11.90;57.65;100803.70;117344;1189;23585;-59
2021/09/22 04:52:29;;;;;;;6.50;4.60;;;;;;;11.93;57.72;100803.48;117271;1184;21861;-59
2021/09/22 04:54:57;;;;;;;8.60;4.70;;;;;;;11.97;57.69;100799.92;117324;1185;23547;-60
2021/09/22 04:57:26;;;;;;;5.50;4.30;;;;;;;12.00;57.80;100798.67;117313;1185;23557;-60
2021/09/22 05:00:07;;;;;;;7.90;4.40;;;;;;;12.04;57.82;100803.04;117274;1185;23541;-60
2021/09/22 05:02:36;;;;;;;9.30;5.60;;;;;;;12.06;57.87;100804.79;117331;1184;22906;-60
2021/09/22 05:05:06;;;;;;;8.50;4.20;;;;;;;12.11;57.83;100796.27;117344;1186;21888;-60
2021/09/22 05:07:54;;;;;;;7.10;3.90;;;;;;;12.13;57.84;100794.66;117281;1187;22181;-60
2021/09/22 05:10:24;;;;;;;7.80;5.00;;;;;;;12.17;57.91;100793.55;117343;1182;23545;-60
2021/09/22 05:12:52;;;;;;;8.00;4.40;;;;;;;12.22;57.92;100790.33;117321;1182;21853;-60
2021/09/22 05:15:20;;;;;;;6.60;3.90;;;;;;;12.25;57.97;100792.23;117269;1185;21855;-60
2021/09/22 05:17:50;;;;;;;9.40;4.40;;;;;;;12.34;58.06;100790.72;117349;1184;23566;-60
2021/09/22 05:20:18;;;;;;;7.00;4.30;;;;;;;12.42;57.93;100789.20;117321;1185;23554;-60
2021/09/22 05:23:06;;;;;;;7.00;3.30;;;;;;;12.53;58.11;100791.70;117327;1185;21993;-60
2021/09/22 05:25:35;;;;;;;7.80;4.30;;;;;;;12.61;57.91;100786.64;117348;1185;23609;-60
2021/09/22 05:28:03;;;;;;;6.20;4.40;;;;;;;12.70;57.87;100784.05;117318;1185;23543;-60
2021/09/22 05:30:33;;;;;;;6.70;4.50;;;;;;;12.76;57.92;100777.11;117268;1182;22625;-60
2021/09/22 05:33:07;;;;;;;;;;;;;;;12.81;57.85;100775.79;117303;1184;23608;-60
2021/09/22 05:35:46;;;;;;;9.10;4.10;;;;;;;12.88;57.77;100769.87;117290;1182;23555;-60
2021/09/22 05:38:16;;;;;;;7.00;3.80;;;;;;;12.96;57.95;100768.70;117349;1185;22661;-60
2021/09/22 05:40:44;;;;;;;7.20;3.90;;;;;;;13.02;57.98;100766.13;117331;1186;23544;-60
2021/09/22 05:43:12;;;;;;;8.20;4.20;;;;;;;13.15;58.06;100764.15;117311;1186;21899;-60
2021/09/22 05:45:41;;;;;;;6.30;3.90;;;;;;;13.29;58.00;100760.04;117476;1184;23553;-60
2021/09/22 05:48:09;;;;;;;7.90;5.60;;;;;;;13.36;58.14;100758.69;117304;1185;21886;-60
2021/09/22 05:50:37;;;;;;;7.70;4.70;;;;;;;13.45;58.04;100756.80;117285;1185;21900;-60
2021/09/22 05:53:05;;;;;;;6.80;4.80;;;;;;;13.55;58.06;100757.33;117289;1184;21928;-60
2021/09/22 05:55:34;;;;;;;5.90;3.70;;;;;;;13.63;58.03;100751.69;117346;1185;23567;-60
2021/09/22 05:58:02;;;;;;;6.50;3.60;;;;;;;13.70;58.04;100751.04;117307;1185;21869;-60
2021/09/22 06:00:30;;;;;;;5.60;3.50;;;;;;;13.80;57.77;100743.08;117369;1185;23531;-60
2021/09/22 06:03:05;;;;;;;5.40;3.70;;;;;;;13.80;57.93;100745.38;117421;1185;23547;-60
2021/09/22 06:05:36;;;;;;;7.30;4.10;;;;;;;13.70;58.21;100748.40;117320;1182;23539;-60
2021/09/22 06:08:08;;;;;;;7.40;4.60;;;;;;;13.79;58.10;100744.88;117360;1185;23464;-60
2021/09/22 06:10:37;;;;;;;8.10;3.70;;;;;;;13.83;57.89;100744.61;117392;1189;23640;-60
2021/09/22 06:13:05;;;;;;;5.90;3.90;;;;;;;13.86;58.13;100744.74;117327;1185;23541;-60
2021/09/22 06:15:34;;;;;;;8.20;3.60;;;;;;;13.91;58.21;100746.75;117328;1183;22619;-60
2021/09/22 06:18:02;;;;;;;5.00;3.50;;;;;;;13.99;58.23;100742.90;117308;1185;21861;-60
2021/09/22 06:20:31;;;;;;;6.50;3.50;;;;;;;14.04;58.21;100743.50;117316;1185;21862;-56
2021/09/22 06:22:59;;;;;;;11.60;3.90;;;;;;;14.08;58.24;100744.10;117457;1185;21902;-59
2021/09/22 06:25:27;;;;;;;6.50;3.70;;;;;;;14.15;58.13;100749.96;117334;1188;23466;-56
2021/09/22 06:27:55;;;;;;;10.00;4.10;;;;;;;14.19;58.16;100741.75;117311;1185;21858;-56
2021/09/22 06:30:25;;;;;;;5.20;3.10;;;;;;;14.24;58.19;100739.53;117280;1185;21848;-56
2021/09/22 06:32:54;;;;;;;7.80;3.50;;;;;;;14.32;58.15;100737.27;117288;1182;21896;-60
2021/09/22 06:35:22;;;;;;;7.30;2.80;;;;;;;14.38;58.26;100733.05;117257;1176;21859;-60
2021/09/22 06:37:52;;;;;;;4.80;3.20;;;;;;;14.48;58.29;100738.48;117110;1184;23494;-60
2021/09/22 06:40:21;;;;;;;5.40;2.60;;;;;;;14.55;58.37;100736.73;117315;1185;23577;-60
2021/09/22 06:42:49;;;;;;;4.20;2.50;;;;;;;14.63;58.31;100734.95;117308;1185;21903;-60
2021/09/22 06:45:24;;;;;;;3.70;2.30;;;;;;;14.69;58.35;100734.81;117184;1178;23665;-61
2021/09/22 06:47:52;;;;;;;5.40;2.50;;;;;;;14.82;58.35;100736.66;117284;1183;22932;-60
2021/09/22 06:50:20;;;;;;;7.80;3.20;;;;;;;14.94;58.31;100739.37;117276;1185;21920;-61
2021/09/22 06:52:49;;;;;;;5.40;3.00;;;;;;;15.07;58.23;100738.00;117355;1185;23638;-60
2021/09/22 06:55:20;;;;;;;;;;;;;;;15.20;58.24;100744.91;117305;1185;23525;-60
2021/09/22 06:57:48;;;;;;;7.40;2.80;;;;;;;15.35;58.37;100745.58;117301;1185;24144;-60
2021/09/22 07:00:35;;;;;;;4.60;2.80;;;;;;;15.53;58.33;100749.52;117223;1183;23588;-61
2021/09/22 07:03:09;;;;;;;4.80;2.80;;;;;;;15.68;58.26;100751.60;117268;1185;23563;-60
2021/09/22 07:05:39;;;;;;;7.50;2.80;;;;;;;15.76;58.16;100754.91;117236;1185;21858;-60
2021/09/22 07:08:08;;;;;;;9.20;2.10;;;;;;;15.86;58.17;100758.91;117345;1185;21844;-60
2021/09/22 07:10:37;;;;;;;3.00;1.90;;;;;;;15.95;58.18;100754.25;117383;1185;22627;-60
2021/09/22 07:13:06;;;;;;;5.10;2.30;;;;;;;16.07;58.30;100754.27;117353;1183;23446;-60
2021/09/22 07:15:35;;;;;;;3.70;2.20;;;;;;;16.21;58.33;100750.66;117307;1185;23531;-61
2021/09/22 07:18:16;;;;;;;3.60;2.20;;;;;;;16.30;58.20;100748.27;117357;1183;23567;-61
2021/09/22 07:20:45;;;;;;;7.10;2.60;;;;;;;16.37;58.21;100747.53;117352;1185;23542;-61
2021/09/22 07:23:13;;;;;;;3.70;2.00;;;;;;;16.38;58.07;100745.55;117362;1185;23003;-61
2021/09/22 07:25:42;;;;;;;4.40;1.80;;;;;;;16.28;57.83;100748.16;117317;1185;23551;-61
2021/09/22 07:28:10;;;;;;;4.10;2.00;;;;;;;16.18;57.75;100746.32;117325;1185;23438;-61
2021/09/22 07:30:40;;;;;;;3.70;1.90;;;;;;;16.14;57.65;100752.27;117309;1185;23550;-61
2021/09/22 07:33:09;;;;;;;3.80;1.70;;;;;;;16.10;57.70;100749.03;117297;1182;23564;-61
2021/09/22 07:35:37;;;;;;;3.60;2.10;;;;;;;16.13;57.84;100749.64;117300;1182;23685;-60
2021/09/22 07:38:05;;;;;;;5.80;1.80;;;;;;;16.20;57.66;100746.97;117340;1185;21974;-61
2021/09/22 07:40:34;;;;;;;2.50;1.60;;;;;;;16.25;57.76;100745.06;117302;1185;23529;-60
2021/09/22 07:43:06;;;;;;;3.90;1.90;;;;;;;16.35;57.86;100741.22;117384;1185;23547;-60
2021/09/22 07:45:40;;;;;;;5.10;1.60;;;;;;;16.48;57.96;100742.41;117169;1185;21962;-60
2021/09/22 07:48:11;;;;;;;2.50;1.50;;;;;;;16.60;57.93;100734.40;117252;1185;22792;-61
2021/09/22 07:50:59;;;;;;;4.30;1.50;;;;;;;16.71;57.78;100731.23;117128;1185;22840;-61
2021/09/22 07:53:27;;;;;;;2.50;1.40;;;;;;;16.74;57.90;100732.20;117232;1181;23761;-61
2021/09/22 07:55:56;;;;;;;3.40;1.50;;;;;;;16.87;57.92;100733.03;117304;1182;22757;-61
2021/09/22 07:58:24;;;;;;;3.50;1.60;;;;;;;16.91;58.03;100730.41;117225;1185;23567;-61
2021/09/22 08:00:52;;;;;;;5.80;1.20;;;;;;;16.95;58.03;100727.62;117282;1185;23566;-61
2021/09/22 08:03:21;;;;;;;5.00;1.30;;;;;;;17.02;58.06;100728.33;117313;1183;22624;-61
2021/09/22 08:05:49;;;;;;;2.20;1.10;;;;;;;17.13;58.03;100726.55;117260;1185;22273;-61
2021/09/22 08:08:17;;;;;;;2.50;1.50;;;;;;;17.24;58.02;100725.25;117260;1182;22869;-61
2021/09/22 08:10:46;;;;;;;5.60;1.60;;;;;;;17.37;57.96;100723.55;117288;1185;23577;-61
2021/09/22 08:13:15;;;;;;;4.80;1.20;;;;;;;17.48;57.98;100717.16;117297;1184;22621;-61
2021/09/22 08:15:44;;;;;;;4.00;1.60;;;;;;;17.57;57.97;100712.21;117406;1185;21887;-61
2021/09/22 08:18:12;;;;;;;3.40;1.60;;;;;;;17.57;57.66;100711.52;117306;1184;23550;-60
2021/09/22 08:20:41;;;;;;;2.10;1.20;;;;;;;17.48;57.59;100703.11;117210;1185;23531;-60
2021/09/22 08:23:09;;;;;;;4.00;1.40;;;;;;;17.49;57.75;100698.67;117172;1182;23462;-61
2021/09/22 08:25:39;;;;;;;2.90;1.50;;;;;;;17.53;57.91;100699.39;117283;1185;23534;-61
2021/09/22 08:28:07;;;;;;;4.10;1.70;;;;;;;17.57;57.81;100689.35;117340;1189;21884;-61
2021/09/22 08:30:35;;;;;;;3.20;1.20;;;;;;;17.56;57.75;100687.77;117319;1183;23651;-61
2021/09/22 08:33:03;;;;;;;2.70;1.00;;;;;;;17.54;57.71;100682.34;117381;1186;23567;-61
2021/09/22 08:35:32;;;;;;;4.20;1.30;;;;;;;17.51;57.58;100678.90;117318;1186;23545;-61
2021/09/22 08:38:01;;;;;;;3.70;1.20;;;;;;;17.45;57.57;100674.16;117404;1185;23557;-61
2021/09/22 08:40:30;;;;;;;4.70;1.30;;;;;;;17.38;57.53;100671.41;117384;1185;23087;-61
2021/09/22 08:42:58;;;;;;;2.30;1.00;;;;;;;17.38;57.67;100674.07;117414;1185;22622;-60
2021/09/22 08:45:28;;;;;;;5.50;1.20;;;;;;;17.39;57.68;100668.16;117293;1186;21859;-60
2021/09/22 08:47:57;;;;;;;2.30;1.10;;;;;;;17.34;57.66;100665.52;117110;1187;21886;-61
2021/09/22 08:50:25;;;;;;;8.00;1.40;;;;;;;17.30;57.67;100664.92;117348;1183;24155;-61
2021/09/22 08:53:08;;;;;;;3.10;1.10;;;;;;;17.27;57.61;100665.39;117263;1185;23930;-61
2021/09/22 08:55:37;;;;;;;2.00;0.80;;;;;;;17.30;57.61;100660.71;117192;1186;21848;-60
2021/09/22 08:58:05;;;;;;;1.50;0.80;;;;;;;17.33;57.56;100661.48;117322;1186;23556;-61
2021/09/22 09:00:34;;;;;;;2.00;0.70;;;;;;;17.35;57.61;100666.20;117300;1183;23550;-61
2021/09/22 09:03:02;;;;;;;3.80;0.70;;;;;;;17.36;57.55;100667.89;117317;1185;22532;-61
2021/09/22 09:05:31;;;;;;;2.10;1.00;;;;;;;17.39;57.44;100669.42;117302;1185;23870;-61
2021/09/22 09:08:00;;;;;;;3.10;0.80;;;;;;;17.38;57.44;100667.13;117304;1184;23553;-61
2021/09/22 09:10:34;;;;;;;3.20;0.80;;;;;;;17.35;57.38;100665.83;117328;1182;23557;-61
2021/09/22 09:13:22;;;;;;;3.10;1.10;;;;;;;17.20;57.30;100668.85;117389;1185;22804;-61
2021/09/22 09:15:50;;;;;;;3.30;1.00;;;;;;;17.10;57.19;100664.38;117263;1182;24136;-61
2021/09/22 09:18:22;;;;;;;3.90;1.10;;;;;;;16.95;57.31;100668.25;117295;1185;23639;-61
2021/09/22 09:20:53;;;;;;;3.30;1.00;;;;;;;16.87;57.34;100668.51;117318;1186;22656;-61
2021/09/22 09:23:22;;;;;;;3.50;1.00;;;;;;;16.79;57.42;100666.84;117338;1185;21844;-61
2021/09/22 09:26:00;;;;;;;2.20;1.00;;;;;;;16.77;57.45;100666.56;117392;1185;23547;-61
2021/09/22 09:28:28;;;;;;;3.20;1.10;;;;;;;16.74;57.49;100667.88;117369;1185;21896;-61
2021/09/22 09:31:01;;;;;;;1.50;0.90;;;;;;;16.72;57.57;100669.39;117254;1185;21858;-61
2021/09/22 09:33:46;;;;;;;4.30;1.00;;;;;;;16.74;57.74;100669.14;117333;1185;21957;-61
2021/09/22 09:36:16;;;;;;;2.80;1.40;;;;;;;16.78;57.64;100668.46;117313;1185;21858;-61
2021/09/22 09:39:09;;;;;;;3.60;1.10;;;;;;;16.84;57.53;100665.25;117376;1185;22651;-61
2021/09/22 09:41:48;;;;;;;3.10;1.10;;;;;;;16.90;57.67;100658.67;117250;1186;21954;-61
2021/09/22 09:44:21;;;;;;;2.00;1.20;;;;;;;17.01;57.72;100655.99;117307;1185;23439;-61
2021/09/22 09:46:50;;;;;;;3.00;1.50;;;;;;;17.14;57.63;100652.17;117291;1185;21872;-60
2021/09/22 09:49:22;;;;;;;2.50;1.20;;;;;;;17.26;57.87;100651.08;117296;1187;21853;-61
2021/09/22 09:51:54;;;;;;;3.00;1.60;;;;;;;17.45;57.84;100644.70;117373;1185;21875;-61
2021/09/22 09:54:49;;;;;;;3.40;1.70;;;;;;;17.64;57.83;100641.69;117314;1185;22799;-60
2021/09/22 09:57:37;;;;;;;2.90;1.30;;;;;;;17.81;57.35;100637.50;117320;1186;23535;-61
2021/09/22 10:00:06;;;;;;;3.50;1.40;;;;;;;17.68;57.23;100640.64;117275;1183;23456;-62
2021/09/22 10:02:35;;;;;;;2.90;1.30;;;;;;;17.64;57.35;100638.16;117412;1182;22784;-62
2021/09/22 10:05:04;;;;;;;4.10;1.40;;;;;;;17.72;57.18;100638.02;117323;1186;23583;-61
2021/09/22 10:07:35;;;;;;;3.80;1.20;;;;;;;17.74;57.05;100639.39;117326;1186;23800;-60
2021/09/22 10:10:06;;;;;;;5.30;1.30;;;;;;;17.77;57.16;100635.55;117075;1185;23532;-60
2021/09/22 10:12:57;;;;;;;3.30;1.40;;;;;;;17.89;57.29;100632.58;117259;1189;21859;-60
2021/09/22 10:15:29;;;;;;;3.20;1.40;;;;;;;18.00;57.37;100624.91;117269;1185;23555;-60
2021/09/22 10:18:14;;;;;;;2.10;1.20;;;;;;;18.15;57.32;100624.67;117171;1186;23532;-60
2021/09/22 10:20:44;;;;;;;2.50;1.40;;;;;;;18.23;57.36;100619.77;117243;1189;21848;-60
2021/09/22 10:23:22;;;;;;;1.70;1.20;;;;;;;18.29;57.37;100620.59;117272;1185;22977;-60
2021/09/22 10:25:51;;;;;;;2.50;1.20;;;;;;;18.36;57.19;100617.61;117328;1185;23465;-60
2021/09/22 10:28:41;;;;;;;5.40;1.20;;;;;;;18.42;57.15;100616.84;117329;1186;21855;-60
2021/09/22 10:31:33;;;;;;;5.90;1.40;;;;;;;18.33;56.87;100612.08;117451;1185;21857;-60
2021/09/22 10:34:02;;;;;;;2.20;1.00;;;;;;;18.24;56.94;100612.11;117326;1185;23465;-61
2021/09/22 10:36:42;;;;;;;3.10;1.20;;;;;;;18.20;57.02;100609.05;117403;1183;22623;-61
2021/09/22 10:39:23;;;;;;;3.30;1.40;;;;;;;18.24;57.01;100612.41;117323;1183;21852;-61
2021/09/22 10:41:51;;;;;;;4.00;1.20;;;;;;;18.21;56.86;100611.11;117339;1185;23497;-62
2021/09/22 10:44:36;;;;;;;2.10;1.10;;;;;;;18.21;56.93;100611.84;117331;1186;23576;-65
2021/09/22 10:47:30;;;;;;;5.10;1.30;;;;;;;18.18;56.93;100607.52;117317;1189;21857;-62
2021/09/22 10:50:00;;;;;;;2.90;1.10;;;;;;;18.16;56.86;100609.73;117289;1185;21851;-62
2021/09/22 10:52:36;;;;;;;2.20;1.20;;;;;;;18.13;56.85;100612.88;117084;1188;21860;-62
2021/09/22 10:55:18;;;;;;;2.80;1.10;;;;;;;18.08;56.76;100607.55;117253;1184;23588;-61
2021/09/22 10:58:11;;;;;;;1.80;0.90;;;;;;;18.03;56.78;100609.37;117230;1184;23082;-61
2021/09/22 11:00:40;;;;;;;2.50;1.00;;;;;;;18.00;56.90;100605.21;117328;1182;22827;-61
2021/09/22 11:03:13;;;;;;;5.80;1.30;;;;;;;18.01;56.77;100602.89;117289;1183;23529;-60
2021/09/22 11:05:44;;;;;;;5.20;1.10;;;;;;;17.99;56.74;100602.76;117420;1185;24189;-61
2021/09/22 11:08:15;;;;;;;;;;;;;;;18.01;56.74;100598.09;117374;1185;21825;-61
2021/09/22 11:10:54;;;;;;;3.90;1.30;;;;;;;17.97;56.92;100596.25;117291;1185;23544;-61
2021/09/22 11:13:22;;;;;;;2.40;1.10;;;;;;;18.03;57.09;100590.03;117304;1185;23519;-62
2021/09/22 11:16:12;;;;;;;3.10;1.00;;;;;;;18.15;57.17;100589.53;117257;1189;21878;-61
2021/09/22 11:19:02;;;;;;;3.50;1.00;;;;;;;18.29;57.34;100587.38;117248;1185;23478;-62
2021/09/22 11:21:36;;;;;;;3.30;1.20;;;;;;;18.47;57.51;100581.11;117280;1186;21972;-61
2021/09/22 11:24:10;;;;;;;4.50;1.00;;;;;;;18.70;57.64;100572.50;117338;1185;21856;-62
2021/09/22 11:26:50;;;;;;;3.10;1.10;;;;;;;18.93;57.70;100569.38;117294;1186;22847;-62
2021/09/22 11:29:35;;;;;;;5.50;0.90;;;;;;;19.12;57.46;100567.31;117339;1185;21857;-58
2021/09/22 11:32:08;;;;;;;3.50;1.00;;;;;;;19.19;57.22;100565.77;117255;1185;22669;-56
2021/09/22 11:34:39;;;;;;;6.70;1.10;;;;;;;19.20;57.18;100571.23;117283;1185;21867;-58
2021/09/22 11:37:11;;;;;;;5.10;1.30;;;;;;;19.12;57.06;100574.45;117207;1182;23471;-57
2021/09/22 11:39:42;;;;;;;2.80;1.20;;;;;;;19.11;56.85;100572.52;117264;1185;21912;-57